sensor_id;sensor_type;location;lat;lon;timestamp;temperature;humidity
23010;DHT22;11671;49.990;8.028;2023-02-21T00:00:26;8.60;99.90
23010;DHT22;11671;49.990;8.028;2023-02-21T00:03:10;8.50;99.90
23010;DHT22;11671;49.990;8.028;2023-02-21T00:05:54;8.50;99.90
23010;DHT22;11671;49.990;8.028;2023-02-21T00:08:38;8.40;99.90
23010;DHT22;11671;49.990;8.028;2023-02-21T00:11:22;8.40;99.90
23010;DHT22;11671;49.990;8.028;2023-02-21T00:14:07;8.30;99.90
23010;DHT22;11671;49.990;8.028;2023-02-21T00:16:51;8.20;99.90
23010;DHT22;11671;49.990;8.028;2023-02-21T00:19:35;8.20;99.90
23010;DHT22;11671;49.990;8.028;2023-02-21T00:22:19;8.20;99.90
23010;DHT22;11671;49.990;8.028;2023-02-21T00:25:03;8.20;99.90
23010;DHT22;11671;49.990;8.028;2023-02-21T00:27:47;8.20;99.90
23010;DHT22;11671;49.990;8.028;2023-02-21T00:30:31;8.10;99.90
23010;DHT22;11671;49.990;8.028;2023-02-21T00:33:15;8.10;99.90
23010;DHT22;11671;49.990;8.028;2023-02-21T00:35:59;8.10;99.90
23010;DHT22;11671;49.990;8.028;2023-02-21T00:38:43;8.10;99.90
23010;DHT22;11671;49.990;8.028;2023-02-21T00:41:27;8.10;99.90
23010;DHT22;11671;49.990;8.028;2023-02-21T00:44:11;8.10;99.90
23010;DHT22;11671;49.990;8.028;2023-02-21T00:46:56;8.10;99.90
23010;DHT22;11671;49.990;8.028;2023-02-21T00:49:40;8.00;99.90
23010;DHT22;11671;49.990;8.028;2023-02-21T00:52:24;8.00;99.90
23010;DHT22;11671;49.990;8.028;2023-02-21T00:55:08;7.90;99.90
23010;DHT22;11671;49.990;8.028;2023-02-21T00:57:52;8.00;99.90
23010;DHT22;11671;49.990;8.028;2023-02-21T01:00:36;7.90;99.90
23010;DHT22;11671;49.990;8.028;2023-02-21T01:03:20;7.90;99.90
23010;DHT22;11671;49.990;8.028;2023-02-21T01:06:08;7.90;99.90
23010;DHT22;11671;49.990;8.028;2023-02-21T01:08:53;7.90;99.90
23010;DHT22;11671;49.990;8.028;2023-02-21T01:11:37;8.00;99.90
23010;DHT22;11671;49.990;8.028;2023-02-21T01:14:21;8.00;99.90
23010;DHT22;11671;49.990;8.028;2023-02-21T01:17:05;8.00;99.90
23010;DHT22;11671;49.990;8.028;2023-02-21T01:19:49;7.90;99.90
23010;DHT22;11671;49.990;8.028;2023-02-21T01:22:34;7.90;99.90
23010;DHT22;11671;49.990;8.028;2023-02-21T01:25:18;7.90;99.90
23010;DHT22;11671;49.990;8.028;2023-02-21T01:28:02;7.80;99.90
23010;DHT22;11671;49.990;8.028;2023-02-21T01:30:46;7.80;99.90
23010;DHT22;11671;49.990;8.028;2023-02-21T01:33:36;7.90;99.90
23010;DHT22;11671;49.990;8.028;2023-02-21T01:36:20;7.90;99.90
23010;DHT22;11671;49.990;8.028;2023-02-21T01:39:04;7.80;99.90
23010;DHT22;11671;49.990;8.028;2023-02-21T01:41:48;7.80;99.90
23010;DHT22;11671;49.990;8.028;2023-02-21T01:44:45;7.80;99.90
23010;DHT22;11671;49.990;8.028;2023-02-21T01:47:30;7.80;99.90
23010;DHT22;11671;49.990;8.028;2023-02-21T01:50:25;7.80;99.90
23010;DHT22;11671;49.990;8.028;2023-02-21T01:53:17;7.80;99.90
23010;DHT22;11671;49.990;8.028;2023-02-21T01:56:03;7.80;99.90
23010;DHT22;11671;49.990;8.028;2023-02-21T01:58:51;7.70;99.90
23010;DHT22;11671;49.990;8.028;2023-02-21T02:01:57;7.70;99.90
23010;DHT22;11671;49.990;8.028;2023-02-21T02:04:42;7.70;99.90
23010;DHT22;11671;49.990;8.028;2023-02-21T02:07:28;7.70;99.90
23010;DHT22;11671;49.990;8.028;2023-02-21T02:10:12;7.70;99.90
23010;DHT22;11671;49.990;8.028;2023-02-21T02:16:17;7.70;99.90
23010;DHT22;11671;49.990;8.028;2023-02-21T02:29:38;7.60;99.90
23010;DHT22;11671;49.990;8.028;2023-02-21T02:32:19;7.60;99.90
23010;DHT22;11671;49.990;8.028;2023-02-21T02:35:02;7.60;99.90
23010;DHT22;11671;49.990;8.028;2023-02-21T02:43:01;7.50;99.90
23010;DHT22;11671;49.990;8.028;2023-02-21T02:50:49;6.80;99.90
23010;DHT22;11671;49.990;8.028;2023-02-21T02:53:19;6.70;99.90
23010;DHT22;11671;49.990;8.028;2023-02-21T02:55:59;6.60;99.90
23010;DHT22;11671;49.990;8.028;2023-02-21T02:58:30;6.60;99.90
23010;DHT22;11671;49.990;8.028;2023-02-21T03:01:40;6.60;99.90
23010;DHT22;11671;49.990;8.028;2023-02-21T03:07:06;6.40;99.90
23010;DHT22;11671;49.990;8.028;2023-02-21T03:12:19;6.40;99.90
23010;DHT22;11671;49.990;8.028;2023-02-21T03:15:21;6.40;99.90
23010;DHT22;11671;49.990;8.028;2023-02-21T03:17:56;6.50;99.90
23010;DHT22;11671;49.990;8.028;2023-02-21T03:20:26;6.50;99.90
23010;DHT22;11671;49.990;8.028;2023-02-21T03:22:53;6.40;99.90
23010;DHT22;11671;49.990;8.028;2023-02-21T03:25:20;6.40;99.90
23010;DHT22;11671;49.990;8.028;2023-02-21T03:27:47;6.30;99.90
23010;DHT22;11671;49.990;8.028;2023-02-21T03:30:14;6.30;99.90
23010;DHT22;11671;49.990;8.028;2023-02-21T03:32:42;6.40;99.90
23010;DHT22;11671;49.990;8.028;2023-02-21T03:35:09;6.40;99.90
23010;DHT22;11671;49.990;8.028;2023-02-21T03:37:36;6.40;99.90
23010;DHT22;11671;49.990;8.028;2023-02-21T03:40:05;6.30;99.90
23010;DHT22;11671;49.990;8.028;2023-02-21T03:42:31;6.40;99.90
23010;DHT22;11671;49.990;8.028;2023-02-21T03:44:57;6.40;99.90
23010;DHT22;11671;49.990;8.028;2023-02-21T03:47:22;6.40;99.90
23010;DHT22;11671;49.990;8.028;2023-02-21T03:49:48;6.40;99.90
23010;DHT22;11671;49.990;8.028;2023-02-21T03:52:13;6.40;99.90
23010;DHT22;11671;49.990;8.028;2023-02-21T03:54:39;6.40;99.90
23010;DHT22;11671;49.990;8.028;2023-02-21T03:57:05;6.40;99.90
23010;DHT22;11671;49.990;8.028;2023-02-21T03:59:30;6.40;99.90
23010;DHT22;11671;49.990;8.028;2023-02-21T04:01:56;6.40;99.90
23010;DHT22;11671;49.990;8.028;2023-02-21T04:04:22;6.40;99.90
23010;DHT22;11671;49.990;8.028;2023-02-21T04:06:47;6.30;99.90
23010;DHT22;11671;49.990;8.028;2023-02-21T04:09:13;6.30;99.90
23010;DHT22;11671;49.990;8.028;2023-02-21T04:11:43;6.30;99.90
23010;DHT22;11671;49.990;8.028;2023-02-21T04:14:08;6.30;99.90
23010;DHT22;11671;49.990;8.028;2023-02-21T04:16:35;6.20;99.90
23010;DHT22;11671;49.990;8.028;2023-02-21T04:19:00;6.20;99.90
23010;DHT22;11671;49.990;8.028;2023-02-21T04:21:26;6.20;99.90
23010;DHT22;11671;49.990;8.028;2023-02-21T04:23:51;6.20;99.90
23010;DHT22;11671;49.990;8.028;2023-02-21T04:26:17;6.20;99.90
23010;DHT22;11671;49.990;8.028;2023-02-21T04:28:42;6.10;99.90
23010;DHT22;11671;49.990;8.028;2023-02-21T04:31:08;6.20;99.90
23010;DHT22;11671;49.990;8.028;2023-02-21T04:33:33;6.10;99.90
23010;DHT22;11671;49.990;8.028;2023-02-21T04:35:59;6.10;99.90
23010;DHT22;11671;49.990;8.028;2023-02-21T04:38:25;6.10;99.90
23010;DHT22;11671;49.990;8.028;2023-02-21T04:40:50;6.00;99.90
23010;DHT22;11671;49.990;8.028;2023-02-21T04:43:16;6.00;99.90
23010;DHT22;11671;49.990;8.028;2023-02-21T04:45:42;5.90;99.90
23010;DHT22;11671;49.990;8.028;2023-02-21T04:48:07;5.80;99.90
23010;DHT22;11671;49.990;8.028;2023-02-21T04:50:33;5.60;99.90
23010;DHT22;11671;49.990;8.028;2023-02-21T04:52:58;5.50;99.90
23010;DHT22;11671;49.990;8.028;2023-02-21T04:55:24;5.50;99.90
23010;DHT22;11671;49.990;8.028;2023-02-21T04:57:49;5.60;99.90
23010;DHT22;11671;49.990;8.028;2023-02-21T05:00:15;5.60;99.90
23010;DHT22;11671;49.990;8.028;2023-02-21T05:02:42;5.60;99.90
23010;DHT22;11671;49.990;8.028;2023-02-21T05:05:08;5.60;99.90
23010;DHT22;11671;49.990;8.028;2023-02-21T05:07:34;5.50;99.90
23010;DHT22;11671;49.990;8.028;2023-02-21T05:10:00;5.50;99.90
23010;DHT22;11671;49.990;8.028;2023-02-21T05:12:25;5.60;99.90
23010;DHT22;11671;49.990;8.028;2023-02-21T05:14:51;5.60;99.90
23010;DHT22;11671;49.990;8.028;2023-02-21T05:17:17;5.60;99.90
23010;DHT22;11671;49.990;8.028;2023-02-21T05:19:45;5.50;99.90
23010;DHT22;11671;49.990;8.028;2023-02-21T05:22:11;5.60;99.90
23010;DHT22;11671;49.990;8.028;2023-02-21T05:24:40;5.60;99.90
23010;DHT22;11671;49.990;8.028;2023-02-21T05:27:07;5.60;99.90
23010;DHT22;11671;49.990;8.028;2023-02-21T05:29:36;5.60;99.90
23010;DHT22;11671;49.990;8.028;2023-02-21T05:32:02;5.50;99.90
23010;DHT22;11671;49.990;8.028;2023-02-21T05:34:27;5.50;99.90
23010;DHT22;11671;49.990;8.028;2023-02-21T05:36:53;5.50;99.90
23010;DHT22;11671;49.990;8.028;2023-02-21T05:39:18;5.50;99.90
23010;DHT22;11671;49.990;8.028;2023-02-21T05:41:49;5.50;99.90
23010;DHT22;11671;49.990;8.028;2023-02-21T05:44:15;5.50;99.90
23010;DHT22;11671;49.990;8.028;2023-02-21T05:46:41;5.50;99.90
23010;DHT22;11671;49.990;8.028;2023-02-21T05:49:06;5.50;99.90
23010;DHT22;11671;49.990;8.028;2023-02-21T05:51:37;5.50;99.90
23010;DHT22;11671;49.990;8.028;2023-02-21T05:54:04;5.50;99.90
23010;DHT22;11671;49.990;8.028;2023-02-21T05:56:35;5.40;99.90
23010;DHT22;11671;49.990;8.028;2023-02-21T05:59:01;5.30;99.90
23010;DHT22;11671;49.990;8.028;2023-02-21T06:01:26;5.30;99.90
23010;DHT22;11671;49.990;8.028;2023-02-21T06:03:52;5.30;99.90
23010;DHT22;11671;49.990;8.028;2023-02-21T06:06:17;5.30;99.90
23010;DHT22;11671;49.990;8.028;2023-02-21T06:08:44;5.30;99.90
23010;DHT22;11671;49.990;8.028;2023-02-21T06:11:10;5.30;99.90
23010;DHT22;11671;49.990;8.028;2023-02-21T06:13:35;5.20;99.90
23010;DHT22;11671;49.990;8.028;2023-02-21T06:16:01;5.20;99.90
23010;DHT22;11671;49.990;8.028;2023-02-21T06:18:26;5.20;99.90
23010;DHT22;11671;49.990;8.028;2023-02-21T06:20:52;5.20;99.90
23010;DHT22;11671;49.990;8.028;2023-02-21T06:23:18;5.20;99.90
23010;DHT22;11671;49.990;8.028;2023-02-21T06:25:43;5.20;99.90
23010;DHT22;11671;49.990;8.028;2023-02-21T06:28:09;5.20;99.90
23010;DHT22;11671;49.990;8.028;2023-02-21T06:30:34;5.30;99.90
23010;DHT22;11671;49.990;8.028;2023-02-21T06:33:00;5.30;99.90
23010;DHT22;11671;49.990;8.028;2023-02-21T06:35:25;5.30;99.90
23010;DHT22;11671;49.990;8.028;2023-02-21T06:37:51;5.30;99.90
23010;DHT22;11671;49.990;8.028;2023-02-21T06:40:16;5.30;99.90
23010;DHT22;11671;49.990;8.028;2023-02-21T06:42:42;5.30;99.90
23010;DHT22;11671;49.990;8.028;2023-02-21T06:45:07;5.20;99.90
23010;DHT22;11671;49.990;8.028;2023-02-21T06:47:33;5.10;99.90
23010;DHT22;11671;49.990;8.028;2023-02-21T06:49:59;5.10;99.90
23010;DHT22;11671;49.990;8.028;2023-02-21T06:52:24;5.20;99.90
23010;DHT22;11671;49.990;8.028;2023-02-21T06:54:51;5.30;99.90
23010;DHT22;11671;49.990;8.028;2023-02-21T06:57:16;5.50;99.90
23010;DHT22;11671;49.990;8.028;2023-02-21T06:59:43;5.50;99.90
23010;DHT22;11671;49.990;8.028;2023-02-21T07:02:16;5.60;99.90
23010;DHT22;11671;49.990;8.028;2023-02-21T07:04:45;5.80;99.90
23010;DHT22;11671;49.990;8.028;2023-02-21T07:07:11;5.80;99.90
23010;DHT22;11671;49.990;8.028;2023-02-21T07:09:37;5.90;99.90
23010;DHT22;11671;49.990;8.028;2023-02-21T07:12:03;6.00;99.90
23010;DHT22;11671;49.990;8.028;2023-02-21T07:14:29;6.20;99.90
23010;DHT22;11671;49.990;8.028;2023-02-21T07:16:54;6.40;99.90
23010;DHT22;11671;49.990;8.028;2023-02-21T07:19:20;6.10;99.90
23010;DHT22;11671;49.990;8.028;2023-02-21T07:21:46;6.00;99.90
23010;DHT22;11671;49.990;8.028;2023-02-21T07:24:12;6.10;99.90
23010;DHT22;11671;49.990;8.028;2023-02-21T07:26:37;6.20;99.90
23010;DHT22;11671;49.990;8.028;2023-02-21T07:29:03;6.30;99.90
23010;DHT22;11671;49.990;8.028;2023-02-21T07:31:29;6.40;99.90
23010;DHT22;11671;49.990;8.028;2023-02-21T07:33:54;6.50;99.90
23010;DHT22;11671;49.990;8.028;2023-02-21T07:36:20;6.50;99.90
23010;DHT22;11671;49.990;8.028;2023-02-21T07:38:47;6.50;99.90
23010;DHT22;11671;49.990;8.028;2023-02-21T07:41:14;6.60;99.90
23010;DHT22;11671;49.990;8.028;2023-02-21T07:43:40;6.70;99.90
23010;DHT22;11671;49.990;8.028;2023-02-21T07:46:09;6.70;99.90
23010;DHT22;11671;49.990;8.028;2023-02-21T07:48:35;6.80;99.90
23010;DHT22;11671;49.990;8.028;2023-02-21T07:51:01;6.80;99.90
23010;DHT22;11671;49.990;8.028;2023-02-21T07:53:27;6.80;99.90
23010;DHT22;11671;49.990;8.028;2023-02-21T07:55:53;6.90;99.90
23010;DHT22;11671;49.990;8.028;2023-02-21T07:58:18;7.00;99.90
23010;DHT22;11671;49.990;8.028;2023-02-21T08:00:45;7.00;99.90
23010;DHT22;11671;49.990;8.028;2023-02-21T08:03:11;7.20;99.90
23010;DHT22;11671;49.990;8.028;2023-02-21T08:05:37;7.30;99.90
23010;DHT22;11671;49.990;8.028;2023-02-21T08:08:02;7.30;99.90
23010;DHT22;11671;49.990;8.028;2023-02-21T08:10:31;7.40;99.90
23010;DHT22;11671;49.990;8.028;2023-02-21T08:12:56;7.50;99.90
23010;DHT22;11671;49.990;8.028;2023-02-21T08:15:22;7.70;99.90
23010;DHT22;11671;49.990;8.028;2023-02-21T08:17:47;7.70;99.90
23010;DHT22;11671;49.990;8.028;2023-02-21T08:20:13;7.80;99.90
23010;DHT22;11671;49.990;8.028;2023-02-21T08:22:39;7.90;99.90
23010;DHT22;11671;49.990;8.028;2023-02-21T08:25:05;8.00;99.90
23010;DHT22;11671;49.990;8.028;2023-02-21T08:27:31;8.10;99.90
23010;DHT22;11671;49.990;8.028;2023-02-21T08:29:56;8.20;99.90
23010;DHT22;11671;49.990;8.028;2023-02-21T08:32:22;8.30;99.90
23010;DHT22;11671;49.990;8.028;2023-02-21T08:34:48;8.50;99.90
23010;DHT22;11671;49.990;8.028;2023-02-21T08:37:15;8.60;99.90
23010;DHT22;11671;49.990;8.028;2023-02-21T08:39:46;9.00;99.90
23010;DHT22;11671;49.990;8.028;2023-02-21T08:42:12;9.10;99.90
23010;DHT22;11671;49.990;8.028;2023-02-21T08:44:38;9.40;99.90
23010;DHT22;11671;49.990;8.028;2023-02-21T08:47:04;9.70;99.90
23010;DHT22;11671;49.990;8.028;2023-02-21T08:49:29;10.70;99.90
23010;DHT22;11671;49.990;8.028;2023-02-21T08:51:55;12.00;99.90
23010;DHT22;11671;49.990;8.028;2023-02-21T08:54:21;12.20;99.90
23010;DHT22;11671;49.990;8.028;2023-02-21T08:56:46;11.80;99.90
23010;DHT22;11671;49.990;8.028;2023-02-21T08:59:13;11.50;99.90
23010;DHT22;11671;49.990;8.028;2023-02-21T09:01:38;11.30;99.90
23010;DHT22;11671;49.990;8.028;2023-02-21T09:04:04;11.40;99.90
23010;DHT22;11671;49.990;8.028;2023-02-21T09:06:30;11.40;99.90
23010;DHT22;11671;49.990;8.028;2023-02-21T09:08:56;11.50;99.90
23010;DHT22;11671;49.990;8.028;2023-02-21T09:11:22;11.70;99.90
23010;DHT22;11671;49.990;8.028;2023-02-21T09:13:47;12.10;99.90
23010;DHT22;11671;49.990;8.028;2023-02-21T09:16:14;12.40;99.90
23010;DHT22;11671;49.990;8.028;2023-02-21T09:18:39;12.50;99.90
23010;DHT22;11671;49.990;8.028;2023-02-21T09:21:06;12.40;99.90
23010;DHT22;11671;49.990;8.028;2023-02-21T09:23:31;12.40;99.90
23010;DHT22;11671;49.990;8.028;2023-02-21T09:25:57;12.10;99.90
23010;DHT22;11671;49.990;8.028;2023-02-21T09:28:23;11.90;99.90
23010;DHT22;11671;49.990;8.028;2023-02-21T09:30:49;11.90;99.90
23010;DHT22;11671;49.990;8.028;2023-02-21T09:33:15;12.10;99.90
23010;DHT22;11671;49.990;8.028;2023-02-21T09:35:40;12.10;99.90
23010;DHT22;11671;49.990;8.028;2023-02-21T09:38:06;12.30;99.90
23010;DHT22;11671;49.990;8.028;2023-02-21T09:40:47;12.40;99.90
23010;DHT22;11671;49.990;8.028;2023-02-21T09:43:27;12.50;99.90
23010;DHT22;11671;49.990;8.028;2023-02-21T09:45:55;12.60;99.90
23010;DHT22;11671;49.990;8.028;2023-02-21T09:48:23;12.80;99.90
23010;DHT22;11671;49.990;8.028;2023-02-21T09:51:04;12.90;99.90
23010;DHT22;11671;49.990;8.028;2023-02-21T09:53:35;13.00;99.90
23010;DHT22;11671;49.990;8.028;2023-02-21T09:58:45;13.00;99.90
23010;DHT22;11671;49.990;8.028;2023-02-21T10:07:09;13.00;99.90
23010;DHT22;11671;49.990;8.028;2023-02-21T10:09:58;12.90;99.90
23010;DHT22;11671;49.990;8.028;2023-02-21T10:12:43;12.90;99.90
23010;DHT22;11671;49.990;8.028;2023-02-21T10:20:38;13.00;99.90
23010;DHT22;11671;49.990;8.028;2023-02-21T10:23:18;13.00;99.90
23010;DHT22;11671;49.990;8.028;2023-02-21T10:25:47;12.90;99.90
23010;DHT22;11671;49.990;8.028;2023-02-21T10:28:19;13.00;99.90
23010;DHT22;11671;49.990;8.028;2023-02-21T10:30:47;13.10;99.90
23010;DHT22;11671;49.990;8.028;2023-02-21T10:33:14;13.40;99.90
23010;DHT22;11671;49.990;8.028;2023-02-21T10:35:40;13.60;99.90
23010;DHT22;11671;49.990;8.028;2023-02-21T10:38:09;13.60;99.90
23010;DHT22;11671;49.990;8.028;2023-02-21T10:41:02;13.50;99.90
23010;DHT22;11671;49.990;8.028;2023-02-21T10:43:42;13.60;99.90
23010;DHT22;11671;49.990;8.028;2023-02-21T10:46:29;13.70;99.90
23010;DHT22;11671;49.990;8.028;2023-02-21T10:49:19;13.70;99.90
23010;DHT22;11671;49.990;8.028;2023-02-21T10:51:46;13.80;99.90
23010;DHT22;11671;49.990;8.028;2023-02-21T10:54:16;13.90;99.90
23010;DHT22;11671;49.990;8.028;2023-02-21T10:56:42;14.00;99.90
23010;DHT22;11671;49.990;8.028;2023-02-21T10:59:07;14.20;99.90
23010;DHT22;11671;49.990;8.028;2023-02-21T11:01:42;14.00;99.90
23010;DHT22;11671;49.990;8.028;2023-02-21T11:04:30;13.80;99.90
23010;DHT22;11671;49.990;8.028;2023-02-21T11:07:09;13.70;99.90
23010;DHT22;11671;49.990;8.028;2023-02-21T11:09:41;13.60;99.90
23010;DHT22;11671;49.990;8.028;2023-02-21T11:12:27;13.70;99.90
23010;DHT22;11671;49.990;8.028;2023-02-21T11:17:24;14.10;99.90
23010;DHT22;11671;49.990;8.028;2023-02-21T11:22:23;14.20;99.90
23010;DHT22;11671;49.990;8.028;2023-02-21T11:25:23;14.20;99.90
23010;DHT22;11671;49.990;8.028;2023-02-21T11:28:03;14.40;99.90
23010;DHT22;11671;49.990;8.028;2023-02-21T11:30:38;14.60;99.90
23010;DHT22;11671;49.990;8.028;2023-02-21T11:33:05;14.70;99.90
23010;DHT22;11671;49.990;8.028;2023-02-21T11:35:38;14.90;99.90
23010;DHT22;11671;49.990;8.028;2023-02-21T11:39:14;14.90;99.90
23010;DHT22;11671;49.990;8.028;2023-02-21T11:43:50;14.60;99.90
23010;DHT22;11671;49.990;8.028;2023-02-21T11:46:39;14.90;99.90
23010;DHT22;11671;49.990;8.028;2023-02-21T11:51:45;15.50;99.90
23010;DHT22;11671;49.990;8.028;2023-02-21T11:54:12;15.50;99.90
23010;DHT22;11671;49.990;8.028;2023-02-21T11:56:50;15.50;99.90
23010;DHT22;11671;49.990;8.028;2023-02-21T12:07:27;15.90;99.90
23010;DHT22;11671;49.990;8.028;2023-02-21T12:09:56;15.80;99.90
23010;DHT22;11671;49.990;8.028;2023-02-21T12:12:36;15.90;99.90
23010;DHT22;11671;49.990;8.028;2023-02-21T12:15:20;15.90;99.90
23010;DHT22;11671;49.990;8.028;2023-02-21T12:31:55;16.60;99.90
23010;DHT22;11671;49.990;8.028;2023-02-21T12:46:26;16.50;99.90
23010;DHT22;11671;49.990;8.028;2023-02-21T12:49:02;16.60;99.90
23010;DHT22;11671;49.990;8.028;2023-02-21T12:51:37;16.80;99.90
23010;DHT22;11671;49.990;8.028;2023-02-21T12:54:12;17.00;99.90
23010;DHT22;11671;49.990;8.028;2023-02-21T13:02:42;17.10;99.90
23010;DHT22;11671;49.990;8.028;2023-02-21T13:05:16;17.50;99.90
23010;DHT22;11671;49.990;8.028;2023-02-21T13:07:58;17.90;99.90
23010;DHT22;11671;49.990;8.028;2023-02-21T13:10:30;17.90;99.90
23010;DHT22;11671;49.990;8.028;2023-02-21T13:13:03;17.30;99.90
23010;DHT22;11671;49.990;8.028;2023-02-21T13:15:33;16.90;99.90
23010;DHT22;11671;49.990;8.028;2023-02-21T13:20:33;16.70;99.90
23010;DHT22;11671;49.990;8.028;2023-02-21T13:23:37;16.70;99.90
23010;DHT22;11671;49.990;8.028;2023-02-21T13:28:59;16.70;99.90
23010;DHT22;11671;49.990;8.028;2023-02-21T13:31:25;16.70;99.90
23010;DHT22;11671;49.990;8.028;2023-02-21T13:33:56;16.70;99.90
23010;DHT22;11671;49.990;8.028;2023-02-21T13:36:30;16.90;99.90
23010;DHT22;11671;49.990;8.028;2023-02-21T13:39:21;17.00;99.90
23010;DHT22;11671;49.990;8.028;2023-02-21T13:42:07;17.40;99.90
23010;DHT22;11671;49.990;8.028;2023-02-21T13:44:40;17.70;99.90
23010;DHT22;11671;49.990;8.028;2023-02-21T13:47:18;18.00;99.90
23010;DHT22;11671;49.990;8.028;2023-02-21T13:57:48;18.50;99.90
23010;DHT22;11671;49.990;8.028;2023-02-21T14:16:12;18.30;99.90
23010;DHT22;11671;49.990;8.028;2023-02-21T14:21:16;17.80;99.90
23010;DHT22;11671;49.990;8.028;2023-02-21T14:23:50;17.80;99.90
23010;DHT22;11671;49.990;8.028;2023-02-21T14:34:39;18.20;99.90
23010;DHT22;11671;49.990;8.028;2023-02-21T14:39:59;18.20;99.90
23010;DHT22;11671;49.990;8.028;2023-02-21T14:42:59;18.10;99.90
23010;DHT22;11671;49.990;8.028;2023-02-21T14:48:50;18.00;99.90
23010;DHT22;11671;49.990;8.028;2023-02-21T15:03:16;17.70;99.90
23010;DHT22;11671;49.990;8.028;2023-02-21T15:05:52;17.70;99.90
23010;DHT22;11671;49.990;8.028;2023-02-21T15:08:23;17.60;99.90
23010;DHT22;11671;49.990;8.028;2023-02-21T15:10:59;17.60;99.90
23010;DHT22;11671;49.990;8.028;2023-02-21T15:13:31;17.50;99.90
23010;DHT22;11671;49.990;8.028;2023-02-21T15:16:06;17.30;99.90
23010;DHT22;11671;49.990;8.028;2023-02-21T15:18:39;17.30;99.90
23010;DHT22;11671;49.990;8.028;2023-02-21T15:21:15;17.20;99.90
23010;DHT22;11671;49.990;8.028;2023-02-21T15:24:00;17.10;99.90
23010;DHT22;11671;49.990;8.028;2023-02-21T15:26:28;16.90;99.90
23010;DHT22;11671;49.990;8.028;2023-02-21T15:31:34;16.70;99.90
23010;DHT22;11671;49.990;8.028;2023-02-21T15:34:00;16.50;99.90
23010;DHT22;11671;49.990;8.028;2023-02-21T15:36:26;16.40;99.90
23010;DHT22;11671;49.990;8.028;2023-02-21T15:39:04;16.30;99.90
23010;DHT22;11671;49.990;8.028;2023-02-21T15:41:44;16.20;99.90
23010;DHT22;11671;49.990;8.028;2023-02-21T15:44:21;16.20;99.90
23010;DHT22;11671;49.990;8.028;2023-02-21T15:49:27;16.10;99.90
23010;DHT22;11671;49.990;8.028;2023-02-21T15:51:54;16.10;99.90
23010;DHT22;11671;49.990;8.028;2023-02-21T15:56:45;16.10;99.90
23010;DHT22;11671;49.990;8.028;2023-02-21T16:01:40;16.10;99.90
23010;DHT22;11671;49.990;8.028;2023-02-21T16:04:15;16.10;99.90
23010;DHT22;11671;49.990;8.028;2023-02-21T16:06:53;16.00;99.90
23010;DHT22;11671;49.990;8.028;2023-02-21T16:09:26;15.90;99.90
23010;DHT22;11671;49.990;8.028;2023-02-21T16:12:04;15.80;99.90
23010;DHT22;11671;49.990;8.028;2023-02-21T16:14:36;15.70;99.90
23010;DHT22;11671;49.990;8.028;2023-02-21T16:17:23;15.60;99.90
23010;DHT22;11671;49.990;8.028;2023-02-21T16:19:54;15.60;99.90
23010;DHT22;11671;49.990;8.028;2023-02-21T16:22:35;15.50;99.90
23010;DHT22;11671;49.990;8.028;2023-02-21T16:27:44;15.40;99.90
23010;DHT22;11671;49.990;8.028;2023-02-21T16:30:14;15.30;99.90
23010;DHT22;11671;49.990;8.028;2023-02-21T16:32:43;15.30;99.90
23010;DHT22;11671;49.990;8.028;2023-02-21T16:35:21;15.30;99.90
23010;DHT22;11671;49.990;8.028;2023-02-21T16:37:56;15.10;99.90
23010;DHT22;11671;49.990;8.028;2023-02-21T16:42:53;15.00;99.90
23010;DHT22;11671;49.990;8.028;2023-02-21T16:45:20;15.00;99.90
23010;DHT22;11671;49.990;8.028;2023-02-21T16:47:47;14.90;99.90
23010;DHT22;11671;49.990;8.028;2023-02-21T16:53:00;14.80;99.90
23010;DHT22;11671;49.990;8.028;2023-02-21T16:55:27;14.70;99.90
23010;DHT22;11671;49.990;8.028;2023-02-21T16:57:58;14.60;99.90
23010;DHT22;11671;49.990;8.028;2023-02-21T17:00:24;14.50;99.90
23010;DHT22;11671;49.990;8.028;2023-02-21T17:02:50;14.40;99.90
23010;DHT22;11671;49.990;8.028;2023-02-21T17:05:18;14.30;99.90
23010;DHT22;11671;49.990;8.028;2023-02-21T17:07:46;14.20;99.90
23010;DHT22;11671;49.990;8.028;2023-02-21T17:10:12;14.00;99.90
23010;DHT22;11671;49.990;8.028;2023-02-21T17:12:37;13.90;99.90
23010;DHT22;11671;49.990;8.028;2023-02-21T17:15:03;13.80;99.90
23010;DHT22;11671;49.990;8.028;2023-02-21T17:17:29;13.70;99.90
23010;DHT22;11671;49.990;8.028;2023-02-21T17:19:54;13.70;99.90
23010;DHT22;11671;49.990;8.028;2023-02-21T17:22:20;13.60;99.90
23010;DHT22;11671;49.990;8.028;2023-02-21T17:24:45;13.50;99.90
23010;DHT22;11671;49.990;8.028;2023-02-21T17:27:11;13.40;99.90
23010;DHT22;11671;49.990;8.028;2023-02-21T17:29:36;13.30;99.90
23010;DHT22;11671;49.990;8.028;2023-02-21T17:32:03;13.10;99.90
23010;DHT22;11671;49.990;8.028;2023-02-21T17:34:35;13.00;99.90
23010;DHT22;11671;49.990;8.028;2023-02-21T17:37:02;12.90;99.90
23010;DHT22;11671;49.990;8.028;2023-02-21T17:39:27;12.90;99.90
23010;DHT22;11671;49.990;8.028;2023-02-21T17:41:53;12.90;99.90
23010;DHT22;11671;49.990;8.028;2023-02-21T17:44:19;12.70;99.90
23010;DHT22;11671;49.990;8.028;2023-02-21T17:46:45;12.70;99.90
23010;DHT22;11671;49.990;8.028;2023-02-21T17:49:14;12.60;99.90
23010;DHT22;11671;49.990;8.028;2023-02-21T17:51:40;12.50;99.90
23010;DHT22;11671;49.990;8.028;2023-02-21T17:54:05;12.50;99.90
23010;DHT22;11671;49.990;8.028;2023-02-21T17:56:31;12.40;99.90
23010;DHT22;11671;49.990;8.028;2023-02-21T17:58:57;12.40;99.90
23010;DHT22;11671;49.990;8.028;2023-02-21T18:01:23;12.30;99.90
23010;DHT22;11671;49.990;8.028;2023-02-21T18:03:49;12.20;99.90
23010;DHT22;11671;49.990;8.028;2023-02-21T18:06:15;12.10;99.90
23010;DHT22;11671;49.990;8.028;2023-02-21T18:08:41;12.00;99.90
23010;DHT22;11671;49.990;8.028;2023-02-21T18:11:10;11.90;99.90
23010;DHT22;11671;49.990;8.028;2023-02-21T18:13:36;11.80;99.90
23010;DHT22;11671;49.990;8.028;2023-02-21T18:16:02;11.80;99.90
23010;DHT22;11671;49.990;8.028;2023-02-21T18:18:30;11.70;99.90
23010;DHT22;11671;49.990;8.028;2023-02-21T18:20:55;11.60;99.90
23010;DHT22;11671;49.990;8.028;2023-02-21T18:23:22;11.60;99.90
23010;DHT22;11671;49.990;8.028;2023-02-21T18:25:48;11.50;99.90
23010;DHT22;11671;49.990;8.028;2023-02-21T18:28:14;11.40;99.90
23010;DHT22;11671;49.990;8.028;2023-02-21T18:30:39;11.40;99.90
23010;DHT22;11671;49.990;8.028;2023-02-21T18:33:06;11.40;99.90
23010;DHT22;11671;49.990;8.028;2023-02-21T18:35:31;11.30;99.90
23010;DHT22;11671;49.990;8.028;2023-02-21T18:37:57;11.20;99.90
23010;DHT22;11671;49.990;8.028;2023-02-21T18:40:22;11.10;99.90
23010;DHT22;11671;49.990;8.028;2023-02-21T18:43:05;11.00;99.90
23010;DHT22;11671;49.990;8.028;2023-02-21T18:45:31;11.00;99.90
23010;DHT22;11671;49.990;8.028;2023-02-21T18:48:00;10.90;99.90
23010;DHT22;11671;49.990;8.028;2023-02-21T18:50:26;10.80;99.90
23010;DHT22;11671;49.990;8.028;2023-02-21T18:52:51;10.80;99.90
23010;DHT22;11671;49.990;8.028;2023-02-21T18:55:17;10.70;99.90